Fullerton, Nebraska
Current Conditions -  °F | °C
As of 2:35 PM on Wednesday 26 Nov 2014 (Local Time) from KBVN Reporting Station
Scattered Clouds Scattered Clouds  
Wind Chill: 16°   Ceiling: Unl
Heat Index: 29°   Visibility: 10mi
Dew Point: 17°   Wind: 20mph
Humidity: 61%   Direction: 330°NNW
Pressure: 30.26"   Gusts: 28mph
Location:  41.36°N, 97.97°W
Report Text: KBVN 262035Z AUTO 33017G24KT 10SM SCT021 M02/M08 A3026 RMK AO2 T10181085
Loading
Personal Weather Stations






























Interactive Weather Map New forecast layout! Learn more

10-Day Weather Forecast

Advertisements
Track Severe Weather on mobile